Time;durP1;ratioP1;P1;durP2;ratioP2;P2;SDS_P1;SDS_P2;PMS_P1;PMS_P2;Temp;Humidity;BMP_temperature;BMP_pressure;BME280_temperature;BME280_humidity;BME280_pressure;Samples;Min_cycle;Max_cycle;Signal;HPM_P1;HPM_P2
2022/03/07 00:01:48;;;;;;;5.97;4.83;;;3.20;96.00;;;;;;5013340;28;20188;-81
2022/03/07 00:04:17;;;;;;;5.40;4.03;;;3.20;96.10;;;;;;5013256;28;20203;-78
2022/03/07 00:06:46;;;;;;;6.93;4.17;;;3.20;96.50;;;;;;5015581;28;20239;-80
2022/03/07 00:09:12;;;;;;;4.93;4.33;;;3.10;96.20;;;;;;5011538;28;20193;-89
2022/03/07 00:11:38;;;;;;;7.87;4.37;;;3.10;96.60;;;;;;5013611;28;20199;-82
2022/03/07 00:14:04;;;;;;;6.40;4.77;;;3.10;96.70;;;;;;5012332;28;20212;-81
2022/03/07 00:16:30;;;;;;;8.50;4.97;;;3.10;96.70;;;;;;5007240;28;20195;-84
2022/03/07 00:18:56;;;;;;;5.50;5.00;;;3.10;96.80;;;;;;5015644;28;20206;-83
2022/03/07 00:21:22;;;;;;;4.70;4.23;;;3.10;97.00;;;;;;5014732;28;20183;-81
2022/03/07 00:23:47;;;;;;;5.60;4.33;;;3.10;97.30;;;;;;5017830;28;20207;-91
2022/03/07 00:26:13;;;;;;;5.40;4.63;;;3.10;97.20;;;;;;4990970;28;20330;-74
2022/03/07 00:28:39;;;;;;;4.63;4.17;;;3.10;97.40;;;;;;5014513;28;20203;-73
2022/03/07 00:31:06;;;;;;;6.43;5.03;;;3.10;97.20;;;;;;5017808;28;20610;-74
2022/03/07 00:33:32;;;;;;;5.97;4.53;;;3.10;97.40;;;;;;5005354;28;20965;-74
2022/03/07 00:35:58;;;;;;;4.57;4.17;;;3.10;97.60;;;;;;5008293;28;20294;-79
2022/03/07 00:38:23;;;;;;;7.80;4.83;;;3.00;97.40;;;;;;5012857;28;20855;-73
2022/03/07 00:40:49;;;;;;;5.93;4.37;;;3.00;97.70;;;;;;5011336;28;20189;-72
2022/03/07 00:43:15;;;;;;;4.80;4.10;;;3.00;98.00;;;;;;5005463;28;20204;-75
2022/03/07 00:45:41;;;;;;;4.47;4.03;;;3.00;97.80;;;;;;5017068;28;20188;-75
2022/03/07 00:48:06;;;;;;;6.03;4.50;;;3.00;97.60;;;;;;5009873;28;20784;-75
2022/03/07 00:50:32;;;;;;;4.27;3.87;;;3.00;97.60;;;;;;5013635;28;20241;-76
2022/03/07 00:52:58;;;;;;;5.57;4.60;;;3.00;97.70;;;;;;5008184;28;20215;-75
2022/03/07 00:55:24;;;;;;;5.77;4.50;;;2.90;98.00;;;;;;5018415;28;20635;-76
2022/03/07 00:57:49;;;;;;;5.00;4.60;;;2.80;98.00;;;;;;5006926;28;20199;-73
2022/03/07 01:00:15;;;;;;;6.30;4.40;;;2.80;98.10;;;;;;5019901;28;20207;-78
2022/03/07 01:02:41;;;;;;;8.30;4.70;;;2.70;98.40;;;;;;5010669;28;20208;-77
2022/03/07 01:05:07;;;;;;;4.90;4.43;;;2.70;98.30;;;;;;5015733;28;20188;-75
2022/03/07 01:07:32;;;;;;;5.93;4.53;;;2.70;98.30;;;;;;5008684;28;20207;-76
2022/03/07 01:09:57;;;;;;;5.40;4.47;;;2.70;98.40;;;;;;5016782;28;20196;-77
2022/03/07 01:12:23;;;;;;;6.20;4.00;;;2.70;98.50;;;;;;5007374;28;20446;-80
2022/03/07 01:14:49;;;;;;;4.60;4.27;;;2.60;98.60;;;;;;5014458;28;20184;-71
2022/03/07 01:17:14;;;;;;;5.60;4.67;;;2.50;98.60;;;;;;5006120;28;20195;-73
2022/03/07 01:19:40;;;;;;;5.80;4.63;;;2.50;98.90;;;;;;5014701;28;20200;-74
2022/03/07 01:22:05;;;;;;;7.30;5.27;;;2.50;99.00;;;;;;5013654;28;20188;-71
2022/03/07 01:24:31;;;;;;;7.07;5.20;;;2.50;99.10;;;;;;5022413;28;20663;-69
2022/03/07 01:26:57;;;;;;;6.00;4.93;;;2.40;99.20;;;;;;5023317;28;20277;-71
2022/03/07 01:29:23;;;;;;;5.63;5.00;;;2.40;99.30;;;;;;5008266;28;20211;-70
2022/03/07 01:31:48;;;;;;;5.37;4.50;;;2.40;99.40;;;;;;5013975;28;20194;-70
2022/03/07 01:34:14;;;;;;;6.10;4.97;;;2.30;99.40;;;;;;5019687;28;20227;-72
2022/03/07 01:36:40;;;;;;;5.20;4.70;;;2.20;99.90;;;;;;5005426;28;20192;-79
2022/03/07 01:39:06;;;;;;;5.60;5.03;;;2.10;99.90;;;;;;5010326;28;20198;-72
2022/03/07 01:41:31;;;;;;;6.57;4.90;;;2.00;99.90;;;;;;5012003;28;20518;-71
2022/03/07 01:43:57;;;;;;;5.10;4.53;;;2.00;99.90;;;;;;5019654;28;20200;-71
2022/03/07 01:46:22;;;;;;;5.50;5.00;;;2.00;99.90;;;;;;5005919;28;20200;-71
2022/03/07 01:48:48;;;;;;;7.60;4.97;;;2.00;99.90;;;;;;5011419;28;20292;-71
2022/03/07 01:51:16;;;;;;;5.67;5.03;;;2.00;99.90;;;;;;5013446;28;20719;-71
2022/03/07 01:53:42;;;;;;;6.27;4.20;;;2.00;99.90;;;;;;5007691;28;20257;-71
2022/03/07 01:56:07;;;;;;;7.80;5.23;;;2.00;99.90;;;;;;5016254;28;20191;-71
2022/03/07 01:58:33;;;;;;;15.07;5.47;;;2.00;99.90;;;;;;5011044;28;20204;-71
2022/03/07 02:00:59;;;;;;;6.43;4.93;;;2.00;99.90;;;;;;5015600;28;20226;-71
2022/03/07 02:03:24;;;;;;;9.60;5.20;;;1.90;99.90;;;;;;5013716;28;20218;-71
2022/03/07 02:05:51;;;;;;;6.53;5.23;;;1.90;99.90;;;;;;5014240;28;20209;-72
2022/03/07 02:08:16;;;;;;;6.63;5.20;;;1.90;99.90;;;;;;5015468;28;20236;-72
2022/03/07 02:10:42;;;;;;;5.80;5.20;;;1.90;99.90;;;;;;5017218;28;20660;-70
2022/03/07 02:13:17;;;;;;;7.90;5.47;;;1.80;99.90;;;;;;5014046;28;20211;-70
2022/03/07 02:15:42;;;;;;;5.23;4.73;;;1.90;99.90;;;;;;5008252;28;20640;-70
2022/03/07 02:18:08;;;;;;;5.00;4.43;;;1.80;99.90;;;;;;5004115;28;20260;-69
2022/03/07 02:20:34;;;;;;;5.90;5.23;;;1.80;99.90;;;;;;5005342;28;20250;-74
2022/03/07 02:23:00;;;;;;;8.93;4.67;;;1.70;99.90;;;;;;5003139;28;20211;-71
2022/03/07 02:25:25;;;;;;;5.97;4.80;;;1.70;99.90;;;;;;5004788;28;20700;-70
2022/03/07 02:27:51;;;;;;;5.50;5.00;;;1.70;99.90;;;;;;5010611;28;20400;-70
2022/03/07 02:30:16;;;;;;;7.13;5.83;;;1.70;99.90;;;;;;5013871;28;20522;-70
2022/03/07 02:32:42;;;;;;;7.93;5.70;;;1.70;99.90;;;;;;5011529;28;20901;-71
2022/03/07 02:35:11;;;;;;;5.60;4.53;;;1.60;99.90;;;;;;5014482;28;20188;-72
2022/03/07 02:37:37;;;;;;;4.83;4.43;;;1.60;99.90;;;;;;5007230;28;20361;-70
2022/03/07 02:40:03;;;;;;;5.30;4.80;;;1.60;99.90;;;;;;5009580;28;20211;-71
2022/03/07 02:42:29;;;;;;;6.13;5.47;;;1.60;99.90;;;;;;5011105;28;20241;-71
2022/03/07 02:44:54;;;;;;;5.07;4.60;;;1.50;99.90;;;;;;5020443;28;20329;-70
2022/03/07 02:47:19;;;;;;;5.70;4.90;;;1.50;99.90;;;;;;5009514;28;20203;-69
2022/03/07 02:49:45;;;;;;;6.93;5.00;;;1.50;99.90;;;;;;5017371;28;20195;-70
2022/03/07 02:52:10;;;;;;;10.87;4.93;;;1.50;99.90;;;;;;5008359;28;20214;-69
2022/03/07 02:54:37;;;;;;;6.57;4.73;;;1.40;99.90;;;;;;5022789;28;20187;-71
2022/03/07 02:57:03;;;;;;;6.90;4.60;;;1.40;99.90;;;;;;5007116;28;20376;-70
2022/03/07 02:59:29;;;;;;;6.57;5.40;;;1.40;99.90;;;;;;5014005;28;20290;-71
2022/03/07 03:01:54;;;;;;;11.00;5.47;;;1.30;99.90;;;;;;5015706;28;20250;-71
2022/03/07 03:04:20;;;;;;;5.73;4.90;;;1.30;99.90;;;;;;5018507;28;20196;-71
2022/03/07 03:06:45;;;;;;;6.03;5.40;;;1.30;99.90;;;;;;5008642;28;20715;-71
2022/03/07 03:09:11;;;;;;;5.27;4.87;;;1.30;99.90;;;;;;5018042;28;20265;-71
2022/03/07 03:11:36;;;;;;;7.23;5.47;;;1.30;99.90;;;;;;5008446;28;20222;-72
2022/03/07 03:14:02;;;;;;;5.93;5.10;;;1.30;99.90;;;;;;5021573;28;20288;-72
2022/03/07 03:16:28;;;;;;;9.97;4.93;;;1.20;99.90;;;;;;5008555;28;20643;-72
2022/03/07 03:18:53;;;;;;;5.17;4.67;;;1.20;99.90;;;;;;5021714;28;20209;-72
2022/03/07 03:21:20;;;;;;;6.83;5.20;;;1.10;99.90;;;;;;5024924;28;20203;-71
2022/03/07 03:23:47;;;;;;;6.83;5.27;;;1.10;99.90;;;;;;5010404;28;20218;-71
2022/03/07 03:26:13;;;;;;;8.57;5.27;;;1.10;99.90;;;;;;5018940;28;20284;-71
2022/03/07 03:28:39;;;;;;;5.87;4.73;;;1.10;99.90;;;;;;5007847;28;20647;-71
2022/03/07 03:31:04;;;;;;;7.40;5.83;;;1.00;99.90;;;;;;5008943;28;20200;-71
2022/03/07 03:33:30;;;;;;;6.23;5.57;;;1.00;99.90;;;;;;5006965;28;20220;-72
2022/03/07 03:35:55;;;;;;;7.07;5.90;;;1.00;99.90;;;;;;5008430;28;20355;-72
2022/03/07 03:38:21;;;;;;;6.63;5.80;;;1.00;99.90;;;;;;5014809;28;20507;-73
2022/03/07 03:40:46;;;;;;;10.03;5.70;;;1.00;99.90;;;;;;5007971;28;20253;-71
2022/03/07 03:43:11;;;;;;;5.53;5.00;;;1.00;99.90;;;;;;5018392;28;20223;-72
2022/03/07 03:45:37;;;;;;;6.67;5.97;;;1.00;99.90;;;;;;5025004;28;20675;-70
2022/03/07 03:48:03;;;;;;;8.83;5.60;;;1.00;99.90;;;;;;5014992;28;20210;-72
2022/03/07 03:50:29;;;;;;;7.20;5.13;;;1.00;99.90;;;;;;5007765;28;20689;-75
2022/03/07 03:52:55;;;;;;;8.47;5.53;;;1.00;99.90;;;;;;5006081;28;20216;-73
2022/03/07 03:55:21;;;;;;;8.40;5.20;;;1.00;99.90;;;;;;5012358;28;20238;-69
2022/03/07 03:57:47;;;;;;;8.30;6.47;;;1.00;99.90;;;;;;5014556;28;20219;-70
2022/03/07 04:00:15;;;;;;;8.70;5.97;;;1.00;99.90;;;;;;5008076;28;20191;-71
2022/03/07 04:02:44;;;;;;;8.00;5.13;;;1.00;99.90;;;;;;5015536;28;20665;-71
2022/03/07 04:05:11;;;;;;;9.37;6.73;;;0.90;99.90;;;;;;5007724;28;20226;-71
2022/03/07 04:07:38;;;;;;;8.63;5.87;;;1.00;99.90;;;;;;5005828;28;20337;-70
2022/03/07 04:10:04;;;;;;;11.23;7.53;;;0.90;99.90;;;;;;5009711;28;20210;-70
2022/03/07 04:12:29;;;;;;;9.93;6.67;;;1.00;99.90;;;;;;5012644;28;20217;-70
2022/03/07 04:14:58;;;;;;;11.17;7.50;;;0.90;99.90;;;;;;5014745;28;20547;-71
2022/03/07 04:17:23;;;;;;;9.77;7.50;;;0.90;99.90;;;;;;5006030;28;20208;-71
2022/03/07 04:19:49;;;;;;;8.20;6.70;;;0.90;99.90;;;;;;5008064;28;20657;-70
2022/03/07 04:22:15;;;;;;;7.47;5.87;;;0.80;99.90;;;;;;5017079;28;20214;-69
2022/03/07 04:24:41;;;;;;;7.00;6.30;;;0.80;99.90;;;;;;5011668;28;20738;-68
2022/03/07 04:27:06;;;;;;;6.97;5.90;;;0.80;99.90;;;;;;5008614;28;20293;-69
2022/03/07 04:29:32;;;;;;;8.07;6.60;;;0.90;99.90;;;;;;5025537;28;20544;-69
2022/03/07 04:31:58;;;;;;;8.73;6.53;;;0.90;99.90;;;;;;5004788;28;20200;-68
2022/03/07 04:34:24;;;;;;;13.37;6.47;;;0.90;99.90;;;;;;5015945;28;20187;-69
2022/03/07 04:36:49;;;;;;;9.63;5.90;;;0.90;99.90;;;;;;5015974;28;20277;-69
2022/03/07 04:39:15;;;;;;;8.50;6.73;;;0.90;99.90;;;;;;5015729;28;20623;-69
2022/03/07 04:41:43;;;;;;;8.03;6.37;;;0.90;99.90;;;;;;5006163;28;20203;-69
2022/03/07 04:44:08;;;;;;;7.37;5.63;;;0.90;99.90;;;;;;5001174;28;20203;-68
2022/03/07 04:46:34;;;;;;;7.67;5.90;;;0.90;99.90;;;;;;5017558;28;20192;-68
2022/03/07 04:48:59;;;;;;;6.87;5.93;;;0.90;99.90;;;;;;5014597;28;20288;-67
2022/03/07 04:51:25;;;;;;;7.67;6.30;;;0.90;99.90;;;;;;5006868;28;20417;-66
2022/03/07 04:53:50;;;;;;;10.80;6.80;;;0.90;99.90;;;;;;5015527;28;20225;-62
2022/03/07 04:56:16;;;;;;;9.20;6.10;;;0.80;99.90;;;;;;5005973;28;20265;-62
2022/03/07 04:58:41;;;;;;;9.50;7.00;;;0.80;99.90;;;;;;5012731;28;20232;-64
2022/03/07 05:01:07;;;;;;;8.67;6.23;;;0.80;99.90;;;;;;5009226;28;20530;-69
2022/03/07 05:03:33;;;;;;;9.03;6.90;;;0.90;99.90;;;;;;5014209;28;20227;-75
2022/03/07 05:05:59;;;;;;;11.17;6.80;;;0.90;99.90;;;;;;5014351;28;20267;-75
2022/03/07 05:08:24;;;;;;;14.57;8.30;;;0.90;99.90;;;;;;5013177;28;20254;-67
2022/03/07 05:10:50;;;;;;;8.63;7.07;;;0.90;99.90;;;;;;5006435;28;20286;-70
2022/03/07 05:13:15;;;;;;;9.97;7.90;;;0.90;99.90;;;;;;5009673;28;20401;-71
2022/03/07 05:15:41;;;;;;;8.97;7.07;;;0.90;99.90;;;;;;5006120;28;20650;-71
2022/03/07 05:18:07;;;;;;;12.43;7.80;;;0.90;99.90;;;;;;5006565;28;20192;-71
2022/03/07 05:20:33;;;;;;;7.70;6.90;;;0.90;99.90;;;;;;5016060;28;20655;-70
2022/03/07 05:22:58;;;;;;;7.53;6.77;;;0.90;99.90;;;;;;5013190;28;20206;-69
2022/03/07 05:25:24;;;;;;;9.73;7.13;;;0.90;99.90;;;;;;5005516;28;20227;-69
2022/03/07 05:27:50;;;;;;;7.17;6.57;;;0.90;99.90;;;;;;5016806;28;20234;-69
2022/03/07 05:30:18;;;;;;;12.20;7.30;;;0.90;99.90;;;;;;5022556;28;20342;-69
2022/03/07 05:32:50;;;;;;;10.97;6.97;;;0.90;99.90;;;;;;5012477;28;20217;-69
2022/03/07 05:35:16;;;;;;;9.03;7.17;;;1.00;99.90;;;;;;5005930;28;20718;-69
2022/03/07 05:37:42;;;;;;;9.53;7.60;;;0.90;99.90;;;;;;5003935;28;20321;-68
2022/03/07 05:40:09;;;;;;;9.10;7.83;;;0.90;99.90;;;;;;5005901;28;20303;-69
2022/03/07 05:42:35;;;;;;;10.23;7.33;;;0.90;99.90;;;;;;5013693;28;20200;-68
2022/03/07 05:45:01;;;;;;;9.90;6.17;;;0.90;99.90;;;;;;5016901;28;20195;-68
2022/03/07 05:47:26;;;;;;;7.80;7.00;;;0.90;99.90;;;;;;5013588;28;20618;-68
2022/03/07 05:49:52;;;;;;;9.93;7.37;;;0.90;99.90;;;;;;5013034;28;20189;-68
2022/03/07 05:52:17;;;;;;;11.70;7.70;;;0.90;99.90;;;;;;5008650;28;20306;-68
2022/03/07 05:54:43;;;;;;;7.50;6.80;;;0.90;99.90;;;;;;5010174;28;20921;-69
2022/03/07 05:57:08;;;;;;;11.57;7.70;;;0.90;99.90;;;;;;5003327;28;20282;-69
2022/03/07 05:59:34;;;;;;;10.20;8.40;;;0.90;99.90;;;;;;5016087;28;20278;-69
2022/03/07 06:01:59;;;;;;;10.03;7.80;;;0.80;99.90;;;;;;5017355;28;20188;-69
2022/03/07 06:04:25;;;;;;;10.03;7.67;;;0.80;99.90;;;;;;5016335;28;20274;-68
2022/03/07 06:06:50;;;;;;;11.90;7.97;;;0.80;99.90;;;;;;5009402;28;20198;-67
2022/03/07 06:09:16;;;;;;;11.83;7.70;;;0.70;99.90;;;;;;5012939;28;20189;-67
2022/03/07 06:11:41;;;;;;;10.70;7.07;;;0.80;99.90;;;;;;5011469;28;20613;-67
2022/03/07 06:14:08;;;;;;;11.23;7.87;;;0.70;99.90;;;;;;5005308;28;20249;-68
2022/03/07 06:16:33;;;;;;;10.30;8.20;;;0.70;99.90;;;;;;5005292;28;20189;-68
2022/03/07 06:18:59;;;;;;;11.40;8.57;;;0.70;99.90;;;;;;5018683;28;20210;-67
2022/03/07 06:21:24;;;;;;;11.90;8.43;;;0.70;99.90;;;;;;5005752;28;20195;-70
2022/03/07 06:23:50;;;;;;;15.90;8.73;;;0.70;99.90;;;;;;5012412;28;20207;-70
2022/03/07 06:26:15;;;;;;;12.37;8.77;;;0.80;99.90;;;;;;5008647;28;20249;-70
2022/03/07 06:28:41;;;;;;;8.97;7.90;;;0.80;99.90;;;;;;5019890;28;20202;-70
2022/03/07 06:31:06;;;;;;;11.33;9.03;;;0.80;99.90;;;;;;5020154;28;20209;-70
2022/03/07 06:33:31;;;;;;;14.37;8.23;;;0.80;99.90;;;;;;5007183;28;20237;-68
2022/03/07 06:35:57;;;;;;;9.53;8.47;;;0.80;99.90;;;;;;5007500;28;20217;-69
2022/03/07 06:38:22;;;;;;;8.90;7.90;;;0.80;99.90;;;;;;5017720;28;20205;-70
2022/03/07 06:40:48;;;;;;;10.00;8.17;;;0.80;99.90;;;;;;5022226;28;20185;-70
2022/03/07 06:43:14;;;;;;;11.67;8.73;;;0.90;99.90;;;;;;5006491;28;20237;-71
2022/03/07 06:45:39;;;;;;;14.63;8.63;;;0.90;99.90;;;;;;5012293;28;20190;-70
2022/03/07 06:48:06;;;;;;;9.07;8.17;;;0.80;99.90;;;;;;5009947;28;20271;-70
2022/03/07 06:50:32;;;;;;;10.37;8.93;;;0.90;99.90;;;;;;5011609;28;20198;-69
2022/03/07 06:52:58;;;;;;;14.30;8.13;;;0.90;99.90;;;;;;5012711;28;20231;-69
2022/03/07 06:55:24;;;;;;;9.17;8.27;;;0.90;99.90;;;;;;5005019;28;20668;-69
2022/03/07 06:57:50;;;;;;;10.57;8.43;;;1.00;99.90;;;;;;5011891;28;20205;-68
2022/03/07 07:00:16;;;;;;;10.73;8.50;;;1.00;99.90;;;;;;5005184;28;20186;-68
2022/03/07 07:02:43;;;;;;;11.23;8.07;;;1.10;99.90;;;;;;5002726;28;20703;-68
2022/03/07 07:05:09;;;;;;;12.90;8.27;;;1.20;99.90;;;;;;5004665;28;20678;-69
2022/03/07 07:07:35;;;;;;;11.43;9.30;;;1.20;99.90;;;;;;5009749;28;20205;-69
2022/03/07 07:10:02;;;;;;;10.13;8.83;;;1.20;99.90;;;;;;5015037;28;20195;-69
2022/03/07 07:12:28;;;;;;;17.43;8.57;;;1.20;99.90;;;;;;5002421;28;20243;-70
2022/03/07 07:14:53;;;;;;;12.60;8.43;;;1.20;99.90;;;;;;5017732;28;20649;-70
2022/03/07 07:17:19;;;;;;;15.50;9.27;;;1.20;99.90;;;;;;5019495;28;20193;-69
2022/03/07 07:19:44;;;;;;;12.50;8.80;;;1.20;99.90;;;;;;4998312;28;20200;-71
2022/03/07 07:22:10;;;;;;;13.00;9.07;;;1.30;99.90;;;;;;5017383;28;20209;-67
2022/03/07 07:24:36;;;;;;;10.73;9.40;;;1.30;99.90;;;;;;5019925;28;20330;-68
2022/03/07 07:27:02;;;;;;;10.43;8.33;;;1.40;99.90;;;;;;4997221;28;20266;-68
2022/03/07 07:29:27;;;;;;;11.67;9.30;;;1.40;99.90;;;;;;5000196;28;20191;-68
2022/03/07 07:31:53;;;;;;;11.87;10.03;;;1.50;99.90;;;;;;4998472;28;20188;-68
2022/03/07 07:34:20;;;;;;;12.70;9.03;;;1.60;99.90;;;;;;4997005;28;20468;-68
2022/03/07 07:36:45;;;;;;;14.13;9.50;;;1.60;99.90;;;;;;4997984;28;20606;-68
2022/03/07 07:39:11;;;;;;;10.33;9.23;;;1.70;99.90;;;;;;4999855;28;20237;-70
2022/03/07 07:41:36;;;;;;;13.60;9.50;;;1.70;99.90;;;;;;5003582;28;20414;-69
2022/03/07 07:44:02;;;;;;;15.43;9.47;;;1.80;99.90;;;;;;4987291;28;20269;-69
2022/03/07 07:46:28;;;;;;;10.50;9.00;;;1.80;99.90;;;;;;4988510;28;20200;-70
2022/03/07 07:48:53;;;;;;;12.90;8.90;;;1.90;99.90;;;;;;4991396;28;20207;-69
2022/03/07 07:51:19;;;;;;;12.93;8.93;;;2.00;99.90;;;;;;4997312;28;20726;-70
2022/03/07 07:53:44;;;;;;;14.53;8.73;;;2.10;99.90;;;;;;4994658;28;20216;-69
2022/03/07 07:56:10;;;;;;;10.20;9.10;;;2.20;99.90;;;;;;4997271;28;20207;-71
2022/03/07 07:58:35;;;;;;;15.23;10.03;;;2.20;99.90;;;;;;4986878;28;20201;-63
2022/03/07 08:01:02;;;;;;;8.93;8.03;;;2.30;99.90;;;;;;4986080;28;20215;-70
2022/03/07 08:03:27;;;;;;;13.57;8.50;;;2.40;99.90;;;;;;4988266;28;20197;-68
2022/03/07 08:05:53;;;;;;;11.73;8.83;;;2.50;99.90;;;;;;4994261;28;20278;-69
2022/03/07 08:08:18;;;;;;;13.30;9.03;;;2.50;99.90;;;;;;5000892;28;20319;-69
2022/03/07 08:10:44;;;;;;;12.47;9.63;;;2.60;99.90;;;;;;4995206;28;20220;-69
2022/03/07 08:13:10;;;;;;;9.57;8.40;;;2.60;99.90;;;;;;4999453;28;20239;-68
2022/03/07 08:15:35;;;;;;;11.83;9.03;;;2.70;99.90;;;;;;4999116;28;20208;-70
2022/03/07 08:18:01;;;;;;;12.27;9.17;;;2.80;99.90;;;;;;5001910;28;20247;-69
2022/03/07 08:20:27;;;;;;;10.57;8.70;;;2.80;99.90;;;;;;4994930;28;20208;-69
2022/03/07 08:22:53;;;;;;;11.83;9.43;;;2.80;99.90;;;;;;5004109;28;20654;-69
2022/03/07 08:25:20;;;;;;;16.57;8.73;;;2.80;99.90;;;;;;4991982;28;20234;-73
2022/03/07 08:27:45;;;;;;;13.43;8.97;;;2.90;99.90;;;;;;5027400;28;20195;-74
2022/03/07 08:30:13;;;;;;;11.10;9.30;;;3.00;99.90;;;;;;5020476;28;20653;-75
2022/03/07 08:32:42;;;;;;;13.60;8.60;;;3.10;99.90;;;;;;5027196;28;20249;-76
2022/03/07 08:35:10;;;;;;;13.50;8.40;;;3.20;99.90;;;;;;5022063;28;20194;-76
2022/03/07 08:37:37;;;;;;;10.03;8.50;;;3.20;99.90;;;;;;5013740;28;20222;-76
2022/03/07 08:40:07;;;;;;;13.80;8.33;;;3.20;99.90;;;;;;5015619;28;20227;-77
2022/03/07 08:42:32;;;;;;;10.37;7.90;;;3.20;99.90;;;;;;5020216;28;20265;-77
2022/03/07 08:44:58;;;;;;;11.80;8.30;;;3.30;99.90;;;;;;5010410;28;20203;-77
2022/03/07 08:47:23;;;;;;;9.70;8.20;;;3.40;99.90;;;;;;5014919;28;20208;-76
2022/03/07 08:49:49;;;;;;;13.27;8.70;;;3.40;99.90;;;;;;5007102;28;20202;-76
2022/03/07 08:52:17;;;;;;;9.73;8.27;;;3.50;99.90;;;;;;5011319;28;20742;-77
2022/03/07 08:54:44;;;;;;;9.20;6.87;;;3.60;99.90;;;;;;5007236;28;20673;-76
2022/03/07 08:57:10;;;;;;;12.67;8.23;;;3.70;99.90;;;;;;5013668;28;20255;-74
2022/03/07 08:59:36;;;;;;;9.73;7.30;;;3.90;99.90;;;;;;5013083;28;20284;-70
2022/03/07 09:02:02;;;;;;;7.53;6.73;;;4.00;99.90;;;;;;5014492;28;20294;-69
2022/03/07 09:04:28;;;;;;;7.03;6.33;;;4.00;99.90;;;;;;5006804;28;20254;-70
2022/03/07 09:06:53;;;;;;;10.70;7.30;;;4.10;99.90;;;;;;5018049;28;20203;-70
2022/03/07 09:09:19;;;;;;;9.43;6.63;;;4.10;99.90;;;;;;5006693;28;20454;-71
2022/03/07 09:11:45;;;;;;;7.77;6.60;;;4.00;99.90;;;;;;5017234;28;20614;-71
2022/03/07 09:14:11;;;;;;;8.60;6.50;;;4.10;99.90;;;;;;5006671;28;20226;-71
2022/03/07 09:16:37;;;;;;;10.43;8.13;;;4.20;99.90;;;;;;5015775;28;20207;-71
2022/03/07 09:19:03;;;;;;;8.10;6.93;;;4.30;99.90;;;;;;5016292;28;20639;-68
2022/03/07 09:21:29;;;;;;;9.03;7.20;;;4.30;99.90;;;;;;5017978;28;20203;-71
2022/03/07 09:23:54;;;;;;;13.33;9.30;;;4.40;99.90;;;;;;5006023;28;20720;-69
2022/03/07 09:26:20;;;;;;;10.93;6.77;;;4.40;99.90;;;;;;5003779;28;20243;-72
2022/03/07 09:28:45;;;;;;;10.70;6.80;;;4.50;99.90;;;;;;5005888;28;20196;-71
2022/03/07 09:31:11;;;;;;;8.57;6.00;;;4.50;99.90;;;;;;5011635;28;20507;-75
2022/03/07 09:33:38;;;;;;;8.47;6.40;;;4.50;99.90;;;;;;5014961;28;20230;-69
2022/03/07 09:36:03;;;;;;;8.47;6.80;;;4.60;99.90;;;;;;5004076;28;20204;-70
2022/03/07 09:38:29;;;;;;;9.57;6.47;;;4.50;99.90;;;;;;5020184;28;20565;-69
2022/03/07 09:40:56;;;;;;;8.57;6.67;;;4.60;99.90;;;;;;5018337;28;20254;-70
2022/03/07 09:43:22;;;;;;;12.20;7.37;;;4.60;99.90;;;;;;5001583;28;20207;-75
2022/03/07 09:45:48;;;;;;;9.97;7.37;;;4.60;99.90;;;;;;5009569;28;20642;-71
2022/03/07 09:48:14;;;;;;;9.47;7.33;;;4.70;99.90;;;;;;5012481;28;20203;-76
2022/03/07 09:50:41;;;;;;;10.30;6.63;;;4.80;99.90;;;;;;5011564;28;20681;-71
2022/03/07 09:53:07;;;;;;;9.67;7.80;;;4.80;99.90;;;;;;5003623;28;20268;-78
2022/03/07 09:55:33;;;;;;;10.80;7.30;;;4.80;99.90;;;;;;5006657;28;20188;-72
2022/03/07 09:57:58;;;;;;;11.40;7.63;;;4.80;99.90;;;;;;5013239;28;20198;-78
2022/03/07 10:00:24;;;;;;;8.57;7.13;;;4.80;99.90;;;;;;5007420;28;20199;-71
2022/03/07 10:02:59;;;;;;;9.23;6.90;;;4.80;99.90;;;;;;5004970;28;20218;-71
2022/03/07 10:05:29;;;;;;;10.57;6.83;;;4.90;99.90;;;;;;5019020;28;20206;-84
2022/03/07 10:07:54;;;;;;;10.37;8.27;;;5.00;99.90;;;;;;5024025;28;20210;-77
2022/03/07 10:10:21;;;;;;;9.17;8.27;;;5.10;99.90;;;;;;5014752;28;20211;-71
2022/03/07 10:12:49;;;;;;;11.23;8.60;;;5.20;99.90;;;;;;5010671;28;20247;-76
2022/03/07 10:15:17;;;;;;;8.70;7.43;;;5.20;99.90;;;;;;5009911;28;20195;-71
2022/03/07 10:17:54;;;;;;;10.23;7.47;;;5.30;99.90;;;;;;5005767;28;20204;-66
2022/03/07 10:20:25;;;;;;;10.53;7.33;;;5.40;99.90;;;;;;5001605;28;20192;-66
2022/03/07 10:22:56;;;;;;;9.53;7.80;;;5.40;99.90;;;;;;5003479;28;20208;-68
2022/03/07 10:25:29;;;;;;;10.33;7.47;;;5.40;99.90;;;;;;5014175;28;20310;-68
2022/03/07 10:27:57;;;;;;;9.00;8.10;;;5.40;99.90;;;;;;5014373;28;20310;-70
2022/03/07 10:30:28;;;;;;;12.87;7.83;;;5.50;99.90;;;;;;5005558;28;20235;-69
2022/03/07 10:33:00;;;;;;;10.63;7.80;;;5.80;99.90;;;;;;5011482;28;20704;-68
2022/03/07 10:35:30;;;;;;;8.70;7.77;;;5.80;99.90;;;;;;5017584;28;20671;-69
2022/03/07 10:37:58;;;;;;;7.90;6.63;;;5.90;99.90;;;;;;5003248;28;20236;-72
2022/03/07 10:40:25;;;;;;;10.73;7.97;;;5.80;99.90;;;;;;5005790;28;20192;-72
2022/03/07 10:42:52;;;;;;;8.80;7.63;;;5.90;99.90;;;;;;5010647;28;20215;-69
2022/03/07 10:45:18;;;;;;;8.83;7.10;;;5.90;99.90;;;;;;5017618;28;20200;-68
2022/03/07 10:47:50;;;;;;;9.40;7.00;;;6.00;99.90;;;;;;5019017;28;20934;-68
2022/03/07 10:50:19;;;;;;;9.63;6.90;;;6.20;99.90;;;;;;5009610;28;20195;-74
2022/03/07 10:52:45;;;;;;;7.83;7.03;;;6.40;99.90;;;;;;5003992;28;20212;-75
2022/03/07 10:55:12;;;;;;;9.77;7.00;;;6.60;99.90;;;;;;5012389;28;20548;-80
2022/03/07 10:57:40;;;;;;;10.80;8.00;;;6.70;99.90;;;;;;4996879;28;20208;-82
2022/03/07 11:00:23;;;;;;;7.07;6.30;;;7.00;99.90;;;;;;5019122;28;20670;-71
2022/03/07 11:02:49;;;;;;;7.33;6.30;;;7.20;99.90;;;;;;5018719;28;20200;-72
2022/03/07 11:05:16;;;;;;;8.07;6.07;;;7.30;99.30;;;;;;5007918;28;20258;-70
2022/03/07 11:07:45;;;;;;;6.07;5.47;;;7.50;99.40;;;;;;5006908;28;20216;-71
2022/03/07 11:10:13;;;;;;;8.27;6.83;;;7.80;98.70;;;;;;5015893;28;20183;-71
2022/03/07 11:12:39;;;;;;;9.20;7.07;;;8.00;98.30;;;;;;5021731;28;20241;-67
2022/03/07 11:15:10;;;;;;;6.50;5.90;;;8.10;98.00;;;;;;5000276;28;20655;-69
2022/03/07 11:17:40;;;;;;;7.67;4.87;;;8.30;98.00;;;;;;5015587;28;20246;-68
2022/03/07 11:20:08;;;;;;;5.73;5.13;;;8.50;96.40;;;;;;5013290;28;20192;-77
2022/03/07 11:22:34;;;;;;;5.30;4.43;;;8.80;95.60;;;;;;5002867;28;20900;-69
2022/03/07 11:25:02;;;;;;;7.03;5.23;;;9.00;95.30;;;;;;5007603;28;22006;-67
2022/03/07 11:27:28;;;;;;;8.87;6.03;;;9.30;95.40;;;;;;5010873;28;20251;-66
2022/03/07 11:29:55;;;;;;;7.93;6.03;;;9.50;95.00;;;;;;5012214;28;20802;-66
2022/03/07 11:32:21;;;;;;;6.40;5.30;;;9.50;94.30;;;;;;5008680;28;20284;-65
2022/03/07 11:35:02;;;;;;;5.33;4.40;;;9.50;93.60;;;;;;5005381;28;20279;-67
2022/03/07 11:37:30;;;;;;;4.67;4.00;;;9.70;92.40;;;;;;5006030;28;20221;-66
2022/03/07 11:39:58;;;;;;;4.63;3.93;;;9.80;91.10;;;;;;5007649;28;20196;-66
2022/03/07 11:42:33;;;;;;;6.07;5.43;;;9.90;90.30;;;;;;5020783;28;20210;-67
2022/03/07 11:45:09;;;;;;;8.47;5.23;;;10.20;91.00;;;;;;5019439;28;20264;-67
2022/03/07 11:47:39;;;;;;;4.60;4.20;;;10.70;90.00;;;;;;4990915;28;20200;-67
2022/03/07 11:50:06;;;;;;;5.13;4.47;;;10.80;86.10;;;;;;5008138;28;20659;-73
2022/03/07 11:52:32;;;;;;;4.00;3.50;;;10.80;84.60;;;;;;4997016;28;20304;-69
2022/03/07 11:55:02;;;;;;;6.87;4.50;;;11.10;80.30;;;;;;5007092;28;20219;-74
2022/03/07 11:57:41;;;;;;;4.30;3.90;;;11.30;78.50;;;;;;5013599;28;20707;-69
2022/03/07 12:00:14;;;;;;;4.87;4.27;;;11.60;77.70;;;;;;5018394;28;20174;-69
2022/03/07 12:02:49;;;;;;;6.17;4.47;;;11.90;76.40;;;;;;5011112;28;20202;-70
2022/03/07 12:05:32;;;;;;;5.50;4.80;;;12.20;76.70;;;;;;5013473;28;20239;-79
2022/03/07 12:08:11;;;;;;;6.30;4.73;;;12.40;73.50;;;;;;5012749;28;20255;-74
2022/03/07 12:10:52;;;;;;;5.07;4.27;;;12.60;72.10;;;;;;5012483;28;20244;-78
2022/03/07 12:13:17;;;;;;;4.60;4.20;;;12.80;72.60;;;;;;5010849;28;20793;-67
2022/03/07 12:15:55;;;;;;;10.57;4.20;;;13.00;72.20;;;;;;5015287;28;20199;-68
2022/03/07 12:18:21;;;;;;;5.87;4.60;;;13.40;70.10;;;;;;5004675;28;20199;-68
2022/03/07 12:20:58;;;;;;;7.73;4.37;;;13.40;68.10;;;;;;5011860;28;20642;-68
2022/03/07 12:23:27;;;;;;;4.47;2.67;;;13.60;68.00;;;;;;5005442;28;20675;-68
2022/03/07 12:26:06;;;;;;;3.30;2.97;;;13.50;63.80;;;;;;5008843;28;20237;-72
2022/03/07 12:28:40;;;;;;;4.57;3.30;;;13.30;61.30;;;;;;4990186;28;20208;-74
2022/03/07 12:31:07;;;;;;;5.97;3.17;;;13.40;60.30;;;;;;5012769;28;20232;-73
2022/03/07 12:33:33;;;;;;;6.07;4.13;;;13.60;60.40;;;;;;4998392;28;20211;-69
2022/03/07 12:36:01;;;;;;;6.23;4.43;;;13.60;62.40;;;;;;5007226;28;20187;-75
2022/03/07 12:38:27;;;;;;;6.77;3.67;;;14.10;61.80;;;;;;5009006;28;20195;-66
2022/03/07 12:40:54;;;;;;;5.67;4.27;;;14.50;60.50;;;;;;5016629;28;20190;-67
2022/03/07 12:43:20;;;;;;;3.83;3.53;;;14.40;59.50;;;;;;5016176;28;20206;-67
2022/03/07 12:45:46;;;;;;;3.20;2.90;;;14.50;58.30;;;;;;5006505;28;20199;-67
2022/03/07 12:48:15;;;;;;;4.40;3.50;;;14.60;57.40;;;;;;5008373;28;20714;-66
2022/03/07 12:50:41;;;;;;;3.80;3.33;;;14.80;57.00;;;;;;5006627;28;20614;-69